Wetterdaten: aktuell Dienstag, 20.02.2018 04:55
Datum Zeit Temp. auen Feuchte A. Luftdruck Regen Wind Richtung Richtung Sonnenschein Solar Windben
20.02.2018 04:55 2,4 C 76 % 1009,0 hPa 0,0 l/m 0,0 km/h (0 Bft) N-NO 14 0 min 0 W/m 0,0 km/h (0 Bft)
20.02.2018 04:50 2,4 C 75 % 1009,0 hPa 0,0 l/m 0,0 km/h (0 Bft) N-NO 14 0 min 0 W/m 0,0 km/h (0 Bft)
20.02.2018 04:45 2,5 C 75 % 1009,0 hPa 0,0 l/m 0,0 km/h (0 Bft) N-NO 14 0 min 0 W/m 0,0 km/h (0 Bft)
20.02.2018 04:40 2,5 C 75 % 1009,0 hPa 0,0 l/m 0,0 km/h (0 Bft) N-NO 14 0 min 0 W/m 0,0 km/h (0 Bft)
20.02.2018 04:35 2,6 C 75 % 1009,0 hPa 0,0 l/m 0,0 km/h (0 Bft) N-NO 14 0 min 0 W/m 0,0 km/h (0 Bft)
20.02.2018 04:30 2,6 C 75 % 1009,0 hPa 0,0 l/m 0,0 km/h (0 Bft) N-NO 14 0 min 0 W/m 0,0 km/h (0 Bft)
20.02.2018 04:25 2,6 C 75 % 1009,1 hPa 0,0 l/m 0,0 km/h (0 Bft) N-NO 14 0 min 0 W/m 0,0 km/h (0 Bft)
20.02.2018 04:20 2,6 C 75 % 1009,1 hPa 0,0 l/m 0,0 km/h (0 Bft) N-NO 14 0 min 0 W/m 0,0 km/h (0 Bft)
20.02.2018 04:15 2,6 C 75 % 1009,1 hPa 0,0 l/m 0,0 km/h (0 Bft) N-NO 14 0 min 0 W/m 0,0 km/h (0 Bft)
20.02.2018 04:10 2,6 C 75 % 1008,9 hPa 0,0 l/m 0,0 km/h (0 Bft) N-NO 14 0 min 0 W/m 0,0 km/h (0 Bft)
20.02.2018 04:05 2,6 C 75 % 1008,9 hPa 0,0 l/m 0,0 km/h (0 Bft) N-NO 14 0 min 0 W/m 0,0 km/h (0 Bft)
20.02.2018 04:00 2,6 C 74 % 1008,9 hPa 0,0 l/m 0,0 km/h (0 Bft) N-NO 14 0 min 0 W/m 0,0 km/h (0 Bft)
20.02.2018 03:55 2,6 C 74 % 1008,9 hPa 0,0 l/m 0,0 km/h (0 Bft) N-NO 14 0 min 0 W/m 0,0 km/h (0 Bft)
20.02.2018 03:50 2,6 C 75 % 1008,9 hPa 0,0 l/m 1,4 km/h (1 Bft) N-NO 14 0 min 0 W/m 3,2 km/h (1 Bft)
20.02.2018 03:45 2,6 C 75 % 1008,9 hPa 0,0 l/m 0,5 km/h (0 Bft) N-NO 14 0 min 0 W/m 3,2 km/h (1 Bft)
20.02.2018 03:40 2,6 C 75 % 1008,9 hPa 0,0 l/m 0,0 km/h (0 Bft) N-NO 14 0 min 0 W/m 0,0 km/h (0 Bft)
20.02.2018 03:35 2,6 C 75 % 1008,9 hPa 0,0 l/m 0,9 km/h (0 Bft) N-NO 14 0 min 0 W/m 4,8 km/h (1 Bft)
20.02.2018 03:30 2,6 C 75 % 1008,9 hPa 0,0 l/m 3,4 km/h (1 Bft) N-NO 14 0 min 0 W/m 4,8 km/h (1 Bft)
20.02.2018 03:25 2,6 C 75 % 1008,9 hPa 0,0 l/m 2,6 km/h (1 Bft) N-NO 14 0 min 0 W/m 4,8 km/h (1 Bft)
20.02.2018 03:20 2,6 C 75 % 1008,9 hPa 0,0 l/m 2,8 km/h (1 Bft) N-NO 14 0 min 0 W/m 4,8 km/h (1 Bft)
20.02.2018 03:15 2,6 C 75 % 1008,9 hPa 0,0 l/m 0,8 km/h (0 Bft) N-NO 14 0 min 0 W/m 3,2 km/h (1 Bft)
20.02.2018 03:10 2,6 C 75 % 1008,9 hPa 0,0 l/m 2,6 km/h (1 Bft) N-NO 14 0 min 0 W/m 4,8 km/h (1 Bft)
20.02.2018 03:05 2,6 C 75 % 1008,9 hPa 0,0 l/m 2,0 km/h (1 Bft) N-NO 14 0 min 0 W/m 3,2 km/h (1 Bft)
20.02.2018 03:00 2,6 C 75 % 1008,9 hPa 0,0 l/m 2,7 km/h (1 Bft) N-NO 14 0 min 0 W/m 4,8 km/h (1 Bft)
20.02.2018 02:55 2,6 C 75 % 1009,1 hPa 0,0 l/m 1,8 km/h (1 Bft) N-NO 14 0 min 0 W/m 4,8 km/h (1 Bft)
20.02.2018 02:50 2,6 C 75 % 1009,1 hPa 0,0 l/m 2,4 km/h (1 Bft) N-NO 14 0 min 0 W/m 4,8 km/h (1 Bft)
20.02.2018 02:45 2,6 C 75 % 1009,1 hPa 0,0 l/m 0,6 km/h (0 Bft) N-NO 14 0 min 0 W/m 3,2 km/h (1 Bft)
20.02.2018 02:40 2,6 C 75 % 1009,1 hPa 0,0 l/m 2,5 km/h (1 Bft) N-NO 14 0 min 0 W/m 4,8 km/h (1 Bft)
20.02.2018 02:35 2,6 C 75 % 1009,1 hPa 0,0 l/m 3,7 km/h (1 Bft) N-NO 14 0 min 0 W/m 6,4 km/h (2 Bft)
20.02.2018 02:30 2,6 C 75 % 1009,1 hPa 0,0 l/m 3,1 km/h (1 Bft) N-NO 14 0 min 0 W/m 4,8 km/h (1 Bft)
20.02.2018 02:25 2,6 C 75 % 1009,3 hPa 0,0 l/m 3,2 km/h (1 Bft) N-NO 14 0 min 0 W/m 6,4 km/h (2 Bft)
20.02.2018 02:20 2,6 C 75 % 1009,3 hPa 0,0 l/m 2,8 km/h (1 Bft) N-NO 14 0 min 0 W/m 4,8 km/h (1 Bft)
20.02.2018 02:15 2,6 C 75 % 1009,3 hPa 0,0 l/m 2,9 km/h (1 Bft) N-NO 14 0 min 0 W/m 6,4 km/h (2 Bft)
20.02.2018 02:10 2,6 C 75 % 1009,3 hPa 0,0 l/m 1,9 km/h (1 Bft) N-NO 14 0 min 0 W/m 4,8 km/h (1 Bft)
20.02.2018 02:05 2,6 C 75 % 1009,3 hPa 0,0 l/m 2,5 km/h (1 Bft) N-NO 14 0 min 0 W/m 4,8 km/h (1 Bft)
20.02.2018 02:00 2,7 C 75 % 1009,3 hPa 0,0 l/m 1,3 km/h (1 Bft) N-NO 14 0 min 0 W/m 4,8 km/h (1 Bft)
20.02.2018 01:55 2,7 C 75 % 1009,4 hPa 0,0 l/m 0,4 km/h (0 Bft) N-NO 14 0 min 0 W/m 3,2 km/h (1 Bft)
20.02.2018 01:50 2,7 C 75 % 1009,4 hPa 0,0 l/m 0,0 km/h (0 Bft) N-NO 14 0 min 0 W/m 0,0 km/h (0 Bft)
20.02.2018 01:45 2,7 C 75 % 1009,4 hPa 0,0 l/m 0,3 km/h (0 Bft) N-NO 14 0 min 0 W/m 3,2 km/h (1 Bft)
20.02.2018 01:40 2,7 C 74 % 1009,5 hPa 0,0 l/m 4,3 km/h (1 Bft) N-NO 14 0 min 0 W/m 6,4 km/h (2 Bft)
20.02.2018 01:35 2,7 C 74 % 1009,5 hPa 0,0 l/m 4,2 km/h (1 Bft) N-NO 14 0 min 0 W/m 6,4 km/h (2 Bft)
20.02.2018 01:30 2,7 C 74 % 1009,5 hPa 0,0 l/m 3,6 km/h (1 Bft) N-NO 14 0 min 0 W/m 4,8 km/h (1 Bft)
20.02.2018 01:25 2,7 C 74 % 1009,8 hPa 0,0 l/m 3,5 km/h (1 Bft) N-NO 14 0 min 0 W/m 6,4 km/h (2 Bft)
20.02.2018 01:20 2,7 C 74 % 1009,8 hPa 0,0 l/m 3,3 km/h (1 Bft) N-NO 14 0 min 0 W/m 6,4 km/h (2 Bft)
20.02.2018 01:15 2,7 C 74 % 1009,8 hPa 0,0 l/m 2,7 km/h (1 Bft) N-NO 14 0 min 0 W/m 4,8 km/h (1 Bft)
20.02.2018 01:10 2,7 C 74 % 1009,9 hPa 0,0 l/m 3,3 km/h (1 Bft) N-NO 14 0 min 0 W/m 6,4 km/h (2 Bft)
20.02.2018 01:05 2,7 C 74 % 1009,9 hPa 0,0 l/m 4,3 km/h (1 Bft) N-NO 14 0 min 0 W/m 6,4 km/h (2 Bft)
20.02.2018 01:00 2,7 C 74 % 1009,9 hPa 0,0 l/m 5,1 km/h (1 Bft) N-NO 15 0 min 0 W/m 8,0 km/h (2 Bft)
20.02.2018 00:55 2,7 C 74 % 1010,0 hPa 0,0 l/m 3,9 km/h (1 Bft) N-NO 12 0 min 0 W/m 8,0 km/h (2 Bft)
20.02.2018 00:50 2,7 C 74 % 1010,0 hPa 0,0 l/m 2,5 km/h (1 Bft) N-NO 13 0 min 0 W/m 6,4 km/h (2 Bft)
20.02.2018 00:45 2,7 C 74 % 1010,0 hPa 0,0 l/m 3,6 km/h (1 Bft) N-NO 13 0 min 0 W/m 6,4 km/h (2 Bft)
20.02.2018 00:40 2,8 C 74 % 1010,1 hPa 0,0 l/m 4,8 km/h (1 Bft) N-NO 13 0 min 0 W/m 8,0 km/h (2 Bft)
20.02.2018 00:35 2,8 C 74 % 1010,1 hPa 0,0 l/m 5,6 km/h (1 Bft) N-NO 15 0 min 0 W/m 9,7 km/h (2 Bft)
20.02.2018 00:30 2,8 C 74 % 1010,1 hPa 0,0 l/m 5,6 km/h (1 Bft) N 10 0 min 0 W/m 9,7 km/h (2 Bft)
20.02.2018 00:25 2,8 C 74 % 1010,3 hPa 0,0 l/m 4,0 km/h (1 Bft) N-NO 15 0 min 0 W/m 8,0 km/h (2 Bft)
20.02.2018 00:20 2,9 C 74 % 1010,3 hPa 0,0 l/m 6,8 km/h (2 Bft) N-NO 17 0 min 0 W/m 11,3 km/h (2 Bft)
20.02.2018 00:15 2,9 C 73 % 1010,3 hPa 0,0 l/m 6,7 km/h (2 Bft) N-NO 20 0 min 0 W/m 11,3 km/h (2 Bft)
20.02.2018 00:10 3,0 C 73 % 1010,4 hPa 0,0 l/m 5,8 km/h (2 Bft) N 360 0 min 0 W/m 9,7 km/h (2 Bft)
20.02.2018 00:05 3,1 C 73 % 1010,4 hPa 0,0 l/m 2,3 km/h (1 Bft) N 10 0 min 0 W/m 6,4 km/h (2 Bft)
20.02.2018 00:00 3,1 C 73 % 1010,4 hPa 0,0 l/m 6,6 km/h (2 Bft) N-NO 14 0 min 0 W/m 11,3 km/h (2 Bft)
_ Min-Zeit 04:50 00:00 03:00 - 01:50 - - - - 01:50
Minimum _ 2,4 C 73 % 1008,9 hPa - 0,0 km/h (0 Bft) - - - - 0,0 km/h (0 Bft)
_ Max-Zeit 00:05 04:55 00:00 00:00 00:20 - - 00:00 00:00 00:00
Maximum _ 3,2 C 76 % 1010,4 hPa 0,0 l/m 6,8 km/h
N-NO (2 Bft)
- - 0 min 0 W/m 11,3 km/h
N-NO (2 Bft)
Durchschnitt _ 2,7 C 75 % 1009,4 hPa #0,0 l/m 2,4 km/h (1 Bft) N-NO - #0 min. 0 W/m 4,5 km/h (1 Bft)